createdAt,value
2023-04-02T00:03:00.525Z,0.53
2023-04-02T00:08:12.035Z,0.53
2023-04-02T00:19:01.060Z,2.53
2023-04-02T00:29:39.572Z,0.50
2023-04-02T00:34:51.675Z,0.87
2023-04-02T00:39:52.773Z,0.53
2023-04-02T00:44:51.532Z,0.57
2023-04-02T00:50:03.516Z,0.73
2023-04-02T00:55:11.659Z,1.13
2023-04-02T01:06:03.038Z,0.50
2023-04-02T01:11:20.178Z,1.37
2023-04-02T01:17:43.125Z,1.13
2023-04-02T01:41:50.842Z,0.93
2023-04-02T01:47:41.203Z,1.73
2023-04-02T01:53:05.009Z,1.03
2023-04-02T02:04:28.804Z,1.40
2023-04-02T02:10:24.620Z,0.90
2023-04-02T02:15:56.388Z,1.63
2023-04-02T02:21:11.959Z,3.57
2023-04-02T02:26:13.044Z,0.70
2023-04-02T02:31:22.263Z,0.50
2023-04-02T02:36:33.605Z,1.63
2023-04-02T02:41:40.890Z,2.30
2023-04-02T02:46:37.260Z,0.70
2023-04-02T02:51:45.033Z,1.17
2023-04-02T02:56:49.953Z,1.40
2023-04-02T03:01:51.322Z,0.63
2023-04-02T03:07:01.711Z,1.27
2023-04-02T03:12:36.648Z,1.87
2023-04-02T03:17:42.445Z,0.63
2023-04-02T03:22:45.728Z,0.70
2023-04-02T03:27:48.766Z,1.17
2023-04-02T03:32:55.220Z,1.10
2023-04-02T03:38:01.409Z,0.77
2023-04-02T03:43:05.379Z,2.20
2023-04-02T03:48:08.214Z,0.90
2023-04-02T03:53:12.037Z,1.10
2023-04-02T03:58:18.721Z,1.80
2023-04-02T04:03:17.990Z,1.00
2023-04-02T04:08:21.608Z,1.07
2023-04-02T04:13:29.614Z,0.60
2023-04-02T04:18:56.198Z,0.87
2023-04-02T04:23:52.990Z,1.03
2023-04-02T04:29:05.569Z,0.97
2023-04-02T04:34:12.740Z,1.50
2023-04-02T04:39:28.325Z,1.23
2023-04-02T04:44:43.559Z,1.03
2023-04-02T04:49:45.242Z,0.87
2023-04-02T04:54:48.158Z,1.50
2023-04-02T04:59:49.075Z,0.50
2023-04-02T05:04:45.506Z,1.90
2023-04-02T05:10:08.422Z,2.87
2023-04-02T05:15:25.747Z,0.63
2023-04-02T05:20:32.138Z,0.87
2023-04-02T05:25:42.981Z,0.63
2023-04-02T05:31:08.147Z,2.47
2023-04-02T05:36:15.530Z,2.53
2023-04-02T05:41:31.520Z,1.33
2023-04-02T05:47:05.589Z,0.80
2023-04-02T05:52:03.121Z,0.57
2023-04-02T05:57:09.284Z,1.30
2023-04-02T06:02:12.664Z,2.00
2023-04-02T06:07:41.819Z,1.23
2023-04-02T06:18:47.243Z,0.97
2023-04-02T06:24:06.108Z,0.73
2023-04-02T06:29:42.131Z,1.70
2023-04-02T06:35:17.994Z,0.80
2023-04-02T06:41:09.277Z,1.33
2023-04-02T06:52:27.114Z,0.80
2023-04-02T06:57:26.857Z,0.40
2023-04-02T07:02:52.082Z,1.33
2023-04-02T07:13:08.522Z,0.83
2023-04-02T07:18:14.009Z,1.03
2023-04-02T07:23:15.852Z,0.77
2023-04-02T07:28:22.528Z,0.50
2023-04-02T07:33:20.532Z,1.40
2023-04-02T07:38:13.866Z,0.40
2023-04-02T07:43:42.343Z,1.77
2023-04-02T07:48:41.601Z,0.60
2023-04-02T07:53:41.929Z,0.70
2023-04-02T07:58:53.165Z,1.20
2023-04-02T08:03:51.740Z,0.80
2023-04-02T08:08:53.326Z,0.60
2023-04-02T08:13:48.541Z,1.60
2023-04-02T08:18:45.631Z,0.20
2023-04-02T08:23:46.398Z,1.00
2023-04-02T08:28:42.866Z,0.83
2023-04-02T08:33:43.821Z,0.70
2023-04-02T08:38:40.935Z,0.43
2023-04-02T08:44:07.218Z,0.77
2023-04-02T08:49:05.470Z,0.77
2023-04-02T09:09:48.004Z,0.83
2023-04-02T09:14:46.359Z,0.43
2023-04-02T09:19:46.228Z,0.67
2023-04-02T09:24:47.011Z,0.30
2023-04-02T09:29:52.752Z,2.63
2023-04-02T09:34:49.795Z,1.17
2023-04-02T09:39:46.380Z,0.30
2023-04-02T09:44:53.015Z,0.93
2023-04-02T09:49:46.689Z,0.97
2023-04-02T09:54:47.699Z,0.60
2023-04-02T09:59:48.671Z,1.73
2023-04-02T10:04:48.059Z,0.80
2023-04-02T10:10:01.405Z,0.80
2023-04-02T10:15:07.299Z,0.27
2023-04-02T10:20:14.602Z,0.63
2023-04-02T10:25:39.943Z,0.77
2023-04-02T10:31:14.194Z,1.47
2023-04-02T10:36:42.163Z,0.33
2023-04-02T10:41:54.479Z,0.30
2023-04-02T10:47:38.091Z,0.53
2023-04-02T10:53:53.103Z,0.20
2023-04-02T10:59:07.096Z,0.60
2023-04-02T11:17:32.936Z,0.60
2023-04-02T11:23:31.889Z,0.47
2023-04-02T11:36:39.537Z,0.40
2023-04-02T12:05:43.482Z,0.60
2023-04-02T12:10:59.454Z,0.60
2023-04-02T12:16:05.359Z,0.40
2023-04-02T12:21:04.850Z,1.50
2023-04-02T12:26:27.610Z,0.57
2023-04-02T12:31:51.557Z,0.43
2023-04-02T12:37:05.531Z,2.93
2023-04-02T12:42:07.045Z,0.57
2023-04-02T12:47:14.615Z,0.20
2023-04-02T12:52:16.334Z,0.30
2023-04-02T12:57:41.040Z,0.20
2023-04-02T13:02:47.927Z,0.63
2023-04-02T13:07:51.108Z,0.60
2023-04-02T13:12:44.793Z,0.20
2023-04-02T13:17:44.569Z,1.30
2023-04-02T13:22:39.057Z,0.10
2023-04-02T13:27:33.937Z,0.47
2023-04-02T13:32:31.085Z,1.50
2023-04-02T13:37:27.989Z,0.50
2023-04-02T13:42:22.741Z,0.40
2023-04-02T13:47:17.699Z,0.50
2023-04-02T13:52:17.266Z,0.30
2023-04-02T13:57:11.606Z,0.20
2023-04-02T14:02:13.390Z,0.20
2023-04-02T14:07:36.775Z,1.60
2023-04-02T14:12:50.956Z,0.67
2023-04-02T14:18:19.654Z,0.20
2023-04-02T14:23:45.967Z,0.90
2023-04-02T14:29:02.174Z,1.83
2023-04-02T14:34:09.911Z,0.97
2023-04-02T14:39:04.881Z,0.20
2023-04-02T14:44:10.886Z,0.10
2023-04-02T14:49:54.108Z,0.77
2023-04-02T14:55:03.597Z,0.10
2023-04-02T15:01:06.360Z,0.10
2023-04-02T15:06:14.412Z,0.10
2023-04-02T15:16:36.603Z,0.50
2023-04-02T15:22:24.486Z,0.50
2023-04-02T15:27:38.595Z,0.50
2023-04-02T15:32:42.294Z,1.23
2023-04-02T15:38:02.173Z,0.60
2023-04-02T15:43:16.488Z,0.20
2023-04-02T15:49:22.610Z,0.30
2023-04-02T15:54:45.896Z,0.23
2023-04-02T16:01:17.329Z,0.10
2023-04-02T16:07:02.006Z,0.33
2023-04-02T16:12:18.806Z,0.37
2023-04-02T16:17:28.022Z,0.30
2023-04-02T16:22:57.218Z,0.20
2023-04-02T16:33:59.794Z,0.10
2023-04-02T16:46:13.541Z,0.40
2023-04-02T16:51:28.994Z,0.20
2023-04-02T16:56:56.712Z,1.37
2023-04-02T17:02:03.676Z,0.60
2023-04-02T17:07:11.718Z,0.40
2023-04-02T17:12:17.586Z,0.13
2023-04-02T17:17:15.903Z,0.27
2023-04-02T17:22:24.699Z,0.40
2023-04-02T17:27:30.734Z,0.53
2023-04-02T17:57:54.804Z,2.50
2023-04-02T18:19:17.447Z,1.30
2023-04-02T19:10:36.383Z,4.83
2023-04-02T19:41:11.156Z,1.97
2023-04-02T19:56:18.335Z,0.97
2023-04-02T20:01:11.762Z,1.23
2023-04-02T20:11:11.710Z,1.10
2023-04-02T20:16:07.858Z,2.50
2023-04-02T20:21:06.290Z,1.13
2023-04-02T20:25:59.724Z,1.60
2023-04-02T21:27:11.275Z,2.40
2023-04-02T21:32:18.030Z,3.40
2023-04-02T21:37:14.545Z,2.70
2023-04-02T21:42:08.370Z,2.70
2023-04-02T21:47:03.127Z,2.73
2023-04-02T21:51:56.757Z,2.73
2023-04-02T21:56:50.924Z,3.03
2023-04-02T22:01:47.505Z,3.60
2023-04-02T22:06:44.328Z,4.43
2023-04-02T22:11:44.562Z,4.27
2023-04-02T22:16:39.543Z,4.23
2023-04-02T22:21:33.696Z,3.30
2023-04-02T22:26:29.135Z,2.97
2023-04-02T22:31:26.430Z,3.13
2023-04-02T22:36:22.276Z,2.57
2023-04-02T22:41:18.408Z,3.10
2023-04-02T22:46:16.458Z,2.50
2023-04-02T23:06:36.064Z,3.30
2023-04-02T23:16:36.553Z,3.40
2023-04-02T23:37:10.207Z,4.00
